sensor_id;sensor_type;location;lat;lon;timestamp;P1;durP1;ratioP1;P2;durP2;ratioP2
47749;SDS011;49810;48.160;10.812;2023-07-16T00:01:45;13.10;;;7.57;;
47749;SDS011;49810;48.160;10.812;2023-07-16T00:04:13;13.48;;;6.93;;
47749;SDS011;49810;48.160;10.812;2023-07-16T00:06:41;13.13;;;7.57;;
47749;SDS011;49810;48.160;10.812;2023-07-16T00:09:09;11.45;;;7.05;;
47749;SDS011;49810;48.160;10.812;2023-07-16T00:11:37;9.50;;;6.50;;
47749;SDS011;49810;48.160;10.812;2023-07-16T00:14:05;15.18;;;7.25;;
47749;SDS011;49810;48.160;10.812;2023-07-16T00:16:33;17.77;;;7.47;;
47749;SDS011;49810;48.160;10.812;2023-07-16T00:19:02;16.40;;;7.63;;
47749;SDS011;49810;48.160;10.812;2023-07-16T00:21:31;19.23;;;7.20;;
47749;SDS011;49810;48.160;10.812;2023-07-16T00:23:59;16.23;;;6.97;;
47749;SDS011;49810;48.160;10.812;2023-07-16T00:26:27;14.85;;;7.20;;
47749;SDS011;49810;48.160;10.812;2023-07-16T00:28:55;11.30;;;7.13;;
47749;SDS011;49810;48.160;10.812;2023-07-16T00:31:23;14.48;;;6.88;;
47749;SDS011;49810;48.160;10.812;2023-07-16T00:33:51;10.38;;;7.30;;
47749;SDS011;49810;48.160;10.812;2023-07-16T00:36:20;11.55;;;6.78;;
47749;SDS011;49810;48.160;10.812;2023-07-16T00:38:48;8.85;;;6.57;;
47749;SDS011;49810;48.160;10.812;2023-07-16T00:41:16;16.65;;;6.90;;
47749;SDS011;49810;48.160;10.812;2023-07-16T00:43:44;10.68;;;6.78;;
47749;SDS011;49810;48.160;10.812;2023-07-16T00:46:12;10.05;;;6.75;;
47749;SDS011;49810;48.160;10.812;2023-07-16T00:48:41;10.13;;;7.30;;
47749;SDS011;49810;48.160;10.812;2023-07-16T00:51:10;10.95;;;7.03;;
47749;SDS011;49810;48.160;10.812;2023-07-16T00:53:40;10.25;;;7.00;;
47749;SDS011;49810;48.160;10.812;2023-07-16T00:56:10;11.45;;;6.80;;
47749;SDS011;49810;48.160;10.812;2023-07-16T00:58:38;11.60;;;7.05;;
47749;SDS011;49810;48.160;10.812;2023-07-16T01:01:06;11.60;;;6.97;;
47749;SDS011;49810;48.160;10.812;2023-07-16T01:03:34;10.18;;;6.85;;
47749;SDS011;49810;48.160;10.812;2023-07-16T01:06:04;9.98;;;6.82;;
47749;SDS011;49810;48.160;10.812;2023-07-16T01:08:33;9.05;;;6.53;;
47749;SDS011;49810;48.160;10.812;2023-07-16T01:11:06;12.43;;;7.10;;
47749;SDS011;49810;48.160;10.812;2023-07-16T01:13:34;9.38;;;7.28;;
47749;SDS011;49810;48.160;10.812;2023-07-16T01:16:03;10.55;;;7.07;;
47749;SDS011;49810;48.160;10.812;2023-07-16T01:18:31;12.23;;;7.30;;
47749;SDS011;49810;48.160;10.812;2023-07-16T01:20:59;9.68;;;7.10;;
47749;SDS011;49810;48.160;10.812;2023-07-16T01:23:31;10.27;;;6.93;;
47749;SDS011;49810;48.160;10.812;2023-07-16T01:26:08;13.40;;;7.45;;
47749;SDS011;49810;48.160;10.812;2023-07-16T01:29:05;15.02;;;8.52;;
47749;SDS011;49810;48.160;10.812;2023-07-16T01:31:35;12.90;;;8.95;;
47749;SDS011;49810;48.160;10.812;2023-07-16T01:34:04;14.93;;;9.25;;
47749;SDS011;49810;48.160;10.812;2023-07-16T01:36:33;12.23;;;8.07;;
47749;SDS011;49810;48.160;10.812;2023-07-16T01:39:02;13.73;;;8.98;;
47749;SDS011;49810;48.160;10.812;2023-07-16T01:41:31;15.38;;;9.90;;
47749;SDS011;49810;48.160;10.812;2023-07-16T01:43:59;12.50;;;9.20;;
47749;SDS011;49810;48.160;10.812;2023-07-16T01:46:28;17.83;;;10.48;;
47749;SDS011;49810;48.160;10.812;2023-07-16T01:48:57;13.90;;;10.35;;
47749;SDS011;49810;48.160;10.812;2023-07-16T01:51:25;16.25;;;10.82;;
47749;SDS011;49810;48.160;10.812;2023-07-16T01:53:53;13.98;;;10.52;;
47749;SDS011;49810;48.160;10.812;2023-07-16T01:56:20;14.77;;;10.75;;
47749;SDS011;49810;48.160;10.812;2023-07-16T01:58:48;13.45;;;11.02;;
47749;SDS011;49810;48.160;10.812;2023-07-16T02:01:17;15.00;;;10.90;;
47749;SDS011;49810;48.160;10.812;2023-07-16T02:03:46;18.63;;;11.02;;
47749;SDS011;49810;48.160;10.812;2023-07-16T02:06:14;16.45;;;10.45;;
47749;SDS011;49810;48.160;10.812;2023-07-16T02:08:43;15.65;;;10.65;;
47749;SDS011;49810;48.160;10.812;2023-07-16T02:11:11;16.30;;;11.23;;
47749;SDS011;49810;48.160;10.812;2023-07-16T02:13:39;18.63;;;11.35;;
47749;SDS011;49810;48.160;10.812;2023-07-16T02:16:07;18.08;;;11.93;;
47749;SDS011;49810;48.160;10.812;2023-07-16T02:18:35;15.10;;;12.30;;
47749;SDS011;49810;48.160;10.812;2023-07-16T02:21:05;15.05;;;10.85;;
47749;SDS011;49810;48.160;10.812;2023-07-16T02:23:33;16.90;;;11.43;;
47749;SDS011;49810;48.160;10.812;2023-07-16T02:26:01;16.35;;;11.60;;
47749;SDS011;49810;48.160;10.812;2023-07-16T02:28:29;22.77;;;12.02;;
47749;SDS011;49810;48.160;10.812;2023-07-16T02:30:57;17.08;;;11.43;;
47749;SDS011;49810;48.160;10.812;2023-07-16T02:33:25;15.82;;;10.50;;
47749;SDS011;49810;48.160;10.812;2023-07-16T02:35:53;15.48;;;11.32;;
47749;SDS011;49810;48.160;10.812;2023-07-16T02:38:22;17.98;;;11.30;;
47749;SDS011;49810;48.160;10.812;2023-07-16T02:40:50;15.32;;;10.43;;
47749;SDS011;49810;48.160;10.812;2023-07-16T02:43:18;14.43;;;9.88;;
47749;SDS011;49810;48.160;10.812;2023-07-16T02:45:46;13.25;;;8.93;;
47749;SDS011;49810;48.160;10.812;2023-07-16T02:48:14;13.68;;;8.07;;
47749;SDS011;49810;48.160;10.812;2023-07-16T02:50:42;11.65;;;7.72;;
47749;SDS011;49810;48.160;10.812;2023-07-16T02:53:10;10.98;;;8.35;;
47749;SDS011;49810;48.160;10.812;2023-07-16T02:55:40;11.80;;;7.68;;
47749;SDS011;49810;48.160;10.812;2023-07-16T02:58:08;13.07;;;7.93;;
47749;SDS011;49810;48.160;10.812;2023-07-16T03:00:36;15.52;;;7.22;;
47749;SDS011;49810;48.160;10.812;2023-07-16T03:03:04;12.68;;;7.30;;
47749;SDS011;49810;48.160;10.812;2023-07-16T03:05:32;10.55;;;6.80;;
47749;SDS011;49810;48.160;10.812;2023-07-16T03:08:00;9.75;;;6.50;;
47749;SDS011;49810;48.160;10.812;2023-07-16T03:10:29;10.15;;;6.40;;
47749;SDS011;49810;48.160;10.812;2023-07-16T03:12:59;12.05;;;6.60;;
47749;SDS011;49810;48.160;10.812;2023-07-16T03:15:27;11.55;;;6.15;;
47749;SDS011;49810;48.160;10.812;2023-07-16T03:17:55;8.73;;;5.95;;
47749;SDS011;49810;48.160;10.812;2023-07-16T03:20:23;9.55;;;6.35;;
47749;SDS011;49810;48.160;10.812;2023-07-16T03:22:50;11.13;;;5.97;;
47749;SDS011;49810;48.160;10.812;2023-07-16T03:25:18;13.50;;;6.15;;
47749;SDS011;49810;48.160;10.812;2023-07-16T03:27:46;10.35;;;6.63;;
47749;SDS011;49810;48.160;10.812;2023-07-16T03:30:16;14.98;;;7.03;;
47749;SDS011;49810;48.160;10.812;2023-07-16T03:32:44;13.48;;;7.05;;
47749;SDS011;49810;48.160;10.812;2023-07-16T03:35:19;10.75;;;6.93;;
47749;SDS011;49810;48.160;10.812;2023-07-16T03:37:51;13.00;;;6.50;;
47749;SDS011;49810;48.160;10.812;2023-07-16T03:40:23;11.20;;;6.47;;
47749;SDS011;49810;48.160;10.812;2023-07-16T03:42:51;10.40;;;5.95;;
47749;SDS011;49810;48.160;10.812;2023-07-16T03:45:21;7.82;;;5.75;;
47749;SDS011;49810;48.160;10.812;2023-07-16T03:47:49;10.38;;;6.68;;
47749;SDS011;49810;48.160;10.812;2023-07-16T03:50:17;8.35;;;5.85;;
47749;SDS011;49810;48.160;10.812;2023-07-16T03:52:46;9.27;;;6.45;;
47749;SDS011;49810;48.160;10.812;2023-07-16T03:55:14;10.43;;;6.35;;
47749;SDS011;49810;48.160;10.812;2023-07-16T03:57:42;11.98;;;7.30;;
47749;SDS011;49810;48.160;10.812;2023-07-16T04:00:11;9.40;;;6.65;;
47749;SDS011;49810;48.160;10.812;2023-07-16T04:02:47;10.20;;;6.07;;
47749;SDS011;49810;48.160;10.812;2023-07-16T04:05:17;11.23;;;5.72;;
47749;SDS011;49810;48.160;10.812;2023-07-16T04:07:49;9.35;;;6.13;;
47749;SDS011;49810;48.160;10.812;2023-07-16T04:10:17;9.43;;;5.40;;
47749;SDS011;49810;48.160;10.812;2023-07-16T04:12:45;8.95;;;5.70;;
47749;SDS011;49810;48.160;10.812;2023-07-16T04:15:13;9.82;;;5.32;;
47749;SDS011;49810;48.160;10.812;2023-07-16T04:17:40;8.93;;;5.00;;
47749;SDS011;49810;48.160;10.812;2023-07-16T04:20:10;6.90;;;4.93;;
47749;SDS011;49810;48.160;10.812;2023-07-16T04:22:38;6.82;;;4.40;;
47749;SDS011;49810;48.160;10.812;2023-07-16T04:25:07;7.30;;;4.63;;
47749;SDS011;49810;48.160;10.812;2023-07-16T04:27:35;7.93;;;4.75;;
47749;SDS011;49810;48.160;10.812;2023-07-16T04:30:03;9.02;;;4.78;;
47749;SDS011;49810;48.160;10.812;2023-07-16T04:32:31;6.07;;;4.35;;
47749;SDS011;49810;48.160;10.812;2023-07-16T04:34:59;7.60;;;4.22;;
47749;SDS011;49810;48.160;10.812;2023-07-16T04:37:29;6.25;;;4.35;;
47749;SDS011;49810;48.160;10.812;2023-07-16T04:39:56;7.20;;;3.97;;
47749;SDS011;49810;48.160;10.812;2023-07-16T04:42:24;9.70;;;4.35;;
47749;SDS011;49810;48.160;10.812;2023-07-16T04:44:52;8.57;;;4.55;;
47749;SDS011;49810;48.160;10.812;2023-07-16T04:47:20;5.75;;;4.00;;
47749;SDS011;49810;48.160;10.812;2023-07-16T04:49:48;10.07;;;4.70;;
47749;SDS011;49810;48.160;10.812;2023-07-16T04:52:16;7.93;;;4.30;;
47749;SDS011;49810;48.160;10.812;2023-07-16T04:54:45;5.97;;;4.10;;
47749;SDS011;49810;48.160;10.812;2023-07-16T04:57:13;6.90;;;4.07;;
47749;SDS011;49810;48.160;10.812;2023-07-16T04:59:41;7.22;;;3.85;;
47749;SDS011;49810;48.160;10.812;2023-07-16T05:02:09;7.10;;;4.22;;
47749;SDS011;49810;48.160;10.812;2023-07-16T05:04:37;7.20;;;3.78;;
47749;SDS011;49810;48.160;10.812;2023-07-16T05:07:05;5.90;;;3.92;;
47749;SDS011;49810;48.160;10.812;2023-07-16T05:09:32;12.57;;;4.50;;
47749;SDS011;49810;48.160;10.812;2023-07-16T05:12:02;5.00;;;3.65;;
47749;SDS011;49810;48.160;10.812;2023-07-16T05:14:30;6.82;;;4.15;;
47749;SDS011;49810;48.160;10.812;2023-07-16T05:16:58;6.65;;;3.50;;
47749;SDS011;49810;48.160;10.812;2023-07-16T05:19:26;9.00;;;4.05;;
47749;SDS011;49810;48.160;10.812;2023-07-16T05:21:54;7.53;;;4.03;;
47749;SDS011;49810;48.160;10.812;2023-07-16T05:24:22;7.90;;;4.25;;
47749;SDS011;49810;48.160;10.812;2023-07-16T05:26:50;8.57;;;4.28;;
47749;SDS011;49810;48.160;10.812;2023-07-16T05:29:22;9.30;;;4.20;;
47749;SDS011;49810;48.160;10.812;2023-07-16T05:31:50;7.50;;;4.20;;
47749;SDS011;49810;48.160;10.812;2023-07-16T05:34:18;7.28;;;4.40;;
47749;SDS011;49810;48.160;10.812;2023-07-16T05:36:46;8.75;;;4.60;;
47749;SDS011;49810;48.160;10.812;2023-07-16T05:39:13;6.40;;;3.92;;
47749;SDS011;49810;48.160;10.812;2023-07-16T05:41:41;7.30;;;3.95;;
47749;SDS011;49810;48.160;10.812;2023-07-16T05:44:09;7.93;;;4.05;;
47749;SDS011;49810;48.160;10.812;2023-07-16T05:46:38;9.60;;;4.07;;
47749;SDS011;49810;48.160;10.812;2023-07-16T05:49:06;5.55;;;3.50;;
47749;SDS011;49810;48.160;10.812;2023-07-16T05:51:34;5.90;;;3.92;;
47749;SDS011;49810;48.160;10.812;2023-07-16T05:54:02;4.93;;;3.60;;
47749;SDS011;49810;48.160;10.812;2023-07-16T05:56:30;5.78;;;3.45;;
47749;SDS011;49810;48.160;10.812;2023-07-16T05:58:58;5.72;;;3.17;;
47749;SDS011;49810;48.160;10.812;2023-07-16T06:01:26;9.48;;;2.80;;
47749;SDS011;49810;48.160;10.812;2023-07-16T06:03:55;5.20;;;3.38;;
47749;SDS011;49810;48.160;10.812;2023-07-16T06:06:23;6.00;;;3.10;;
47749;SDS011;49810;48.160;10.812;2023-07-16T06:08:51;4.18;;;2.60;;
47749;SDS011;49810;48.160;10.812;2023-07-16T06:11:19;4.20;;;2.47;;
47749;SDS011;49810;48.160;10.812;2023-07-16T06:13:47;4.28;;;2.10;;
47749;SDS011;49810;48.160;10.812;2023-07-16T06:16:15;4.43;;;2.40;;
47749;SDS011;49810;48.160;10.812;2023-07-16T06:18:44;3.65;;;2.13;;
47749;SDS011;49810;48.160;10.812;2023-07-16T06:21:13;6.93;;;2.22;;
47749;SDS011;49810;48.160;10.812;2023-07-16T06:23:41;4.35;;;2.03;;
47749;SDS011;49810;48.160;10.812;2023-07-16T06:26:10;5.55;;;1.83;;
47749;SDS011;49810;48.160;10.812;2023-07-16T06:28:38;3.17;;;2.00;;
47749;SDS011;49810;48.160;10.812;2023-07-16T06:31:06;2.85;;;1.70;;
47749;SDS011;49810;48.160;10.812;2023-07-16T06:33:33;3.25;;;1.70;;
47749;SDS011;49810;48.160;10.812;2023-07-16T06:36:01;4.50;;;2.25;;
47749;SDS011;49810;48.160;10.812;2023-07-16T06:38:31;3.53;;;1.92;;
47749;SDS011;49810;48.160;10.812;2023-07-16T06:40:59;4.07;;;2.20;;
47749;SDS011;49810;48.160;10.812;2023-07-16T06:43:27;4.20;;;2.65;;
47749;SDS011;49810;48.160;10.812;2023-07-16T06:45:55;4.95;;;1.90;;
47749;SDS011;49810;48.160;10.812;2023-07-16T06:48:23;4.03;;;1.70;;
47749;SDS011;49810;48.160;10.812;2023-07-16T06:50:51;3.55;;;2.00;;
47749;SDS011;49810;48.160;10.812;2023-07-16T06:53:19;3.72;;;2.17;;
47749;SDS011;49810;48.160;10.812;2023-07-16T06:55:48;3.15;;;1.88;;
47749;SDS011;49810;48.160;10.812;2023-07-16T06:58:16;5.65;;;2.00;;
47749;SDS011;49810;48.160;10.812;2023-07-16T07:00:44;4.47;;;1.73;;
47749;SDS011;49810;48.160;10.812;2023-07-16T07:03:12;4.70;;;1.77;;
47749;SDS011;49810;48.160;10.812;2023-07-16T07:05:40;4.55;;;2.00;;
47749;SDS011;49810;48.160;10.812;2023-07-16T07:08:08;4.75;;;1.63;;
47749;SDS011;49810;48.160;10.812;2023-07-16T07:10:36;7.18;;;4.72;;
47749;SDS011;49810;48.160;10.812;2023-07-16T07:13:07;3.65;;;1.60;;
47749;SDS011;49810;48.160;10.812;2023-07-16T07:15:35;2.72;;;1.52;;
47749;SDS011;49810;48.160;10.812;2023-07-16T07:18:03;4.60;;;1.90;;
47749;SDS011;49810;48.160;10.812;2023-07-16T07:20:31;3.10;;;1.95;;
47749;SDS011;49810;48.160;10.812;2023-07-16T07:22:59;3.60;;;2.03;;
47749;SDS011;49810;48.160;10.812;2023-07-16T07:25:30;4.65;;;1.85;;
47749;SDS011;49810;48.160;10.812;2023-07-16T07:27:58;3.67;;;2.10;;
47749;SDS011;49810;48.160;10.812;2023-07-16T07:30:29;3.47;;;1.90;;
47749;SDS011;49810;48.160;10.812;2023-07-16T07:32:57;5.32;;;1.90;;
47749;SDS011;49810;48.160;10.812;2023-07-16T07:35:25;5.82;;;2.10;;
47749;SDS011;49810;48.160;10.812;2023-07-16T07:37:53;3.55;;;2.00;;
47749;SDS011;49810;48.160;10.812;2023-07-16T07:40:22;4.40;;;1.70;;
47749;SDS011;49810;48.160;10.812;2023-07-16T07:42:50;3.75;;;1.70;;
47749;SDS011;49810;48.160;10.812;2023-07-16T07:45:18;4.00;;;2.13;;
47749;SDS011;49810;48.160;10.812;2023-07-16T07:47:47;2.80;;;1.75;;
47749;SDS011;49810;48.160;10.812;2023-07-16T07:50:15;2.58;;;1.58;;
47749;SDS011;49810;48.160;10.812;2023-07-16T07:52:43;5.88;;;1.75;;
47749;SDS011;49810;48.160;10.812;2023-07-16T07:55:11;3.08;;;1.73;;
47749;SDS011;49810;48.160;10.812;2023-07-16T07:57:39;3.72;;;1.85;;
47749;SDS011;49810;48.160;10.812;2023-07-16T08:00:07;3.25;;;1.77;;
47749;SDS011;49810;48.160;10.812;2023-07-16T08:02:40;3.65;;;1.73;;
47749;SDS011;49810;48.160;10.812;2023-07-16T08:05:10;3.58;;;1.80;;
47749;SDS011;49810;48.160;10.812;2023-07-16T08:07:38;3.25;;;1.58;;
47749;SDS011;49810;48.160;10.812;2023-07-16T08:10:06;2.50;;;1.50;;
47749;SDS011;49810;48.160;10.812;2023-07-16T08:12:35;3.28;;;1.67;;
47749;SDS011;49810;48.160;10.812;2023-07-16T08:15:06;2.03;;;1.50;;
47749;SDS011;49810;48.160;10.812;2023-07-16T08:17:36;3.65;;;1.83;;
47749;SDS011;49810;48.160;10.812;2023-07-16T08:20:05;5.00;;;2.00;;
47749;SDS011;49810;48.160;10.812;2023-07-16T08:22:36;5.63;;;1.90;;
47749;SDS011;49810;48.160;10.812;2023-07-16T08:25:05;4.45;;;1.48;;
47749;SDS011;49810;48.160;10.812;2023-07-16T08:27:34;2.90;;;1.63;;
47749;SDS011;49810;48.160;10.812;2023-07-16T08:30:03;3.33;;;1.67;;
47749;SDS011;49810;48.160;10.812;2023-07-16T08:32:31;5.22;;;1.83;;
47749;SDS011;49810;48.160;10.812;2023-07-16T08:34:59;2.92;;;1.55;;
47749;SDS011;49810;48.160;10.812;2023-07-16T08:37:27;3.75;;;1.70;;
47749;SDS011;49810;48.160;10.812;2023-07-16T08:39:57;2.33;;;1.55;;
47749;SDS011;49810;48.160;10.812;2023-07-16T08:42:25;2.55;;;1.73;;
47749;SDS011;49810;48.160;10.812;2023-07-16T08:44:53;4.05;;;2.00;;
47749;SDS011;49810;48.160;10.812;2023-07-16T08:47:21;4.25;;;1.98;;
47749;SDS011;49810;48.160;10.812;2023-07-16T08:49:53;3.45;;;1.88;;
47749;SDS011;49810;48.160;10.812;2023-07-16T08:52:21;3.13;;;1.98;;
47749;SDS011;49810;48.160;10.812;2023-07-16T08:54:50;3.70;;;1.77;;
47749;SDS011;49810;48.160;10.812;2023-07-16T08:57:20;4.22;;;1.60;;
47749;SDS011;49810;48.160;10.812;2023-07-16T08:59:48;3.10;;;1.77;;
47749;SDS011;49810;48.160;10.812;2023-07-16T09:02:18;3.28;;;1.58;;
47749;SDS011;49810;48.160;10.812;2023-07-16T09:04:46;3.33;;;1.88;;
47749;SDS011;49810;48.160;10.812;2023-07-16T09:07:17;3.40;;;2.20;;
47749;SDS011;49810;48.160;10.812;2023-07-16T09:09:56;4.18;;;1.90;;
47749;SDS011;49810;48.160;10.812;2023-07-16T09:12:30;3.55;;;1.70;;
47749;SDS011;49810;48.160;10.812;2023-07-16T09:14:58;5.25;;;1.85;;
47749;SDS011;49810;48.160;10.812;2023-07-16T09:17:27;5.53;;;2.17;;
47749;SDS011;49810;48.160;10.812;2023-07-16T09:20:01;3.67;;;1.75;;
47749;SDS011;49810;48.160;10.812;2023-07-16T09:22:38;4.53;;;1.90;;
47749;SDS011;49810;48.160;10.812;2023-07-16T09:25:08;5.32;;;2.08;;
47749;SDS011;49810;48.160;10.812;2023-07-16T09:27:37;3.72;;;1.90;;
47749;SDS011;49810;48.160;10.812;2023-07-16T09:30:06;2.42;;;1.60;;
47749;SDS011;49810;48.160;10.812;2023-07-16T09:32:34;3.60;;;1.80;;
47749;SDS011;49810;48.160;10.812;2023-07-16T09:35:06;3.58;;;1.73;;
47749;SDS011;49810;48.160;10.812;2023-07-16T09:37:34;2.80;;;1.55;;
47749;SDS011;49810;48.160;10.812;2023-07-16T09:40:03;2.60;;;1.40;;
47749;SDS011;49810;48.160;10.812;2023-07-16T09:42:35;3.15;;;1.60;;
47749;SDS011;49810;48.160;10.812;2023-07-16T09:45:07;4.88;;;1.98;;
47749;SDS011;49810;48.160;10.812;2023-07-16T09:47:35;3.58;;;1.85;;
47749;SDS011;49810;48.160;10.812;2023-07-16T09:50:04;4.38;;;1.80;;
47749;SDS011;49810;48.160;10.812;2023-07-16T09:52:33;4.05;;;1.45;;
47749;SDS011;49810;48.160;10.812;2023-07-16T09:55:03;3.80;;;1.63;;
47749;SDS011;49810;48.160;10.812;2023-07-16T09:57:34;2.42;;;1.67;;
47749;SDS011;49810;48.160;10.812;2023-07-16T10:00:03;2.70;;;1.70;;
47749;SDS011;49810;48.160;10.812;2023-07-16T10:02:40;2.95;;;1.83;;
47749;SDS011;49810;48.160;10.812;2023-07-16T10:05:12;2.53;;;1.77;;
47749;SDS011;49810;48.160;10.812;2023-07-16T10:07:40;3.35;;;1.75;;
47749;SDS011;49810;48.160;10.812;2023-07-16T10:10:09;2.47;;;1.50;;
47749;SDS011;49810;48.160;10.812;2023-07-16T10:12:38;6.47;;;1.92;;
47749;SDS011;49810;48.160;10.812;2023-07-16T10:15:06;2.13;;;1.40;;
47749;SDS011;49810;48.160;10.812;2023-07-16T10:17:49;3.13;;;1.60;;
47749;SDS011;49810;48.160;10.812;2023-07-16T10:20:17;3.20;;;1.90;;
47749;SDS011;49810;48.160;10.812;2023-07-16T10:22:55;10.18;;;6.50;;
47749;SDS011;49810;48.160;10.812;2023-07-16T10:25:24;5.75;;;4.30;;
47749;SDS011;49810;48.160;10.812;2023-07-16T10:27:53;3.17;;;1.90;;
47749;SDS011;49810;48.160;10.812;2023-07-16T10:30:22;4.75;;;2.25;;
47749;SDS011;49810;48.160;10.812;2023-07-16T10:32:52;2.20;;;1.40;;
47749;SDS011;49810;48.160;10.812;2023-07-16T10:35:21;6.18;;;3.63;;
47749;SDS011;49810;48.160;10.812;2023-07-16T10:37:49;2.63;;;1.77;;
47749;SDS011;49810;48.160;10.812;2023-07-16T10:40:17;4.32;;;1.52;;
47749;SDS011;49810;48.160;10.812;2023-07-16T10:42:45;4.13;;;2.03;;
47749;SDS011;49810;48.160;10.812;2023-07-16T10:45:13;4.10;;;2.05;;
47749;SDS011;49810;48.160;10.812;2023-07-16T10:47:50;3.08;;;1.90;;
47749;SDS011;49810;48.160;10.812;2023-07-16T10:50:20;3.90;;;1.48;;
47749;SDS011;49810;48.160;10.812;2023-07-16T10:52:50;3.88;;;1.65;;
47749;SDS011;49810;48.160;10.812;2023-07-16T10:55:19;2.78;;;1.83;;
47749;SDS011;49810;48.160;10.812;2023-07-16T10:57:47;2.95;;;1.65;;
47749;SDS011;49810;48.160;10.812;2023-07-16T11:00:15;3.30;;;1.52;;
47749;SDS011;49810;48.160;10.812;2023-07-16T11:02:43;2.70;;;1.45;;
47749;SDS011;49810;48.160;10.812;2023-07-16T11:05:11;3.38;;;1.63;;
47749;SDS011;49810;48.160;10.812;2023-07-16T11:07:43;2.35;;;1.58;;
47749;SDS011;49810;48.160;10.812;2023-07-16T11:10:20;2.30;;;1.67;;
47749;SDS011;49810;48.160;10.812;2023-07-16T11:12:50;2.42;;;1.60;;
47749;SDS011;49810;48.160;10.812;2023-07-16T11:15:29;3.08;;;1.92;;
47749;SDS011;49810;48.160;10.812;2023-07-16T11:17:57;3.55;;;1.90;;
47749;SDS011;49810;48.160;10.812;2023-07-16T11:20:26;2.00;;;1.42;;
47749;SDS011;49810;48.160;10.812;2023-07-16T11:22:58;4.15;;;1.70;;
47749;SDS011;49810;48.160;10.812;2023-07-16T11:25:26;3.78;;;1.80;;
47749;SDS011;49810;48.160;10.812;2023-07-16T11:27:54;3.25;;;1.70;;
47749;SDS011;49810;48.160;10.812;2023-07-16T11:30:23;3.25;;;1.65;;
47749;SDS011;49810;48.160;10.812;2023-07-16T11:32:52;3.60;;;1.45;;
47749;SDS011;49810;48.160;10.812;2023-07-16T11:35:21;3.40;;;1.70;;
47749;SDS011;49810;48.160;10.812;2023-07-16T11:37:49;2.70;;;1.65;;
47749;SDS011;49810;48.160;10.812;2023-07-16T11:40:19;4.80;;;1.63;;
47749;SDS011;49810;48.160;10.812;2023-07-16T11:42:47;4.38;;;1.42;;
47749;SDS011;49810;48.160;10.812;2023-07-16T11:45:16;4.00;;;1.80;;
47749;SDS011;49810;48.160;10.812;2023-07-16T11:47:45;3.13;;;1.70;;
47749;SDS011;49810;48.160;10.812;2023-07-16T11:50:13;3.72;;;2.00;;
47749;SDS011;49810;48.160;10.812;2023-07-16T11:52:43;2.80;;;1.90;;
47749;SDS011;49810;48.160;10.812;2023-07-16T11:55:21;3.63;;;1.90;;
47749;SDS011;49810;48.160;10.812;2023-07-16T11:57:50;2.72;;;1.65;;
47749;SDS011;49810;48.160;10.812;2023-07-16T12:00:18;2.92;;;1.80;;
47749;SDS011;49810;48.160;10.812;2023-07-16T12:02:48;3.05;;;1.42;;
47749;SDS011;49810;48.160;10.812;2023-07-16T12:05:20;4.35;;;1.70;;
47749;SDS011;49810;48.160;10.812;2023-07-16T12:08:07;4.03;;;1.80;;
47749;SDS011;49810;48.160;10.812;2023-07-16T12:13:11;3.20;;;1.80;;
47749;SDS011;49810;48.160;10.812;2023-07-16T12:15:39;5.43;;;2.28;;
47749;SDS011;49810;48.160;10.812;2023-07-16T12:18:08;2.05;;;1.30;;
47749;SDS011;49810;48.160;10.812;2023-07-16T12:20:36;5.28;;;2.42;;
47749;SDS011;49810;48.160;10.812;2023-07-16T12:23:04;3.42;;;1.50;;
47749;SDS011;49810;48.160;10.812;2023-07-16T12:25:33;2.72;;;2.00;;
47749;SDS011;49810;48.160;10.812;2023-07-16T12:28:01;2.45;;;1.40;;
47749;SDS011;49810;48.160;10.812;2023-07-16T12:30:30;1.90;;;1.20;;
47749;SDS011;49810;48.160;10.812;2023-07-16T12:32:59;2.22;;;1.40;;
47749;SDS011;49810;48.160;10.812;2023-07-16T12:35:29;2.63;;;1.40;;
47749;SDS011;49810;48.160;10.812;2023-07-16T12:37:57;2.97;;;1.63;;
47749;SDS011;49810;48.160;10.812;2023-07-16T12:40:27;2.67;;;1.42;;
47749;SDS011;49810;48.160;10.812;2023-07-16T12:42:55;1.88;;;1.23;;
47749;SDS011;49810;48.160;10.812;2023-07-16T12:45:23;2.30;;;1.40;;
47749;SDS011;49810;48.160;10.812;2023-07-16T12:47:53;3.33;;;1.58;;
47749;SDS011;49810;48.160;10.812;2023-07-16T12:50:20;2.83;;;1.65;;
47749;SDS011;49810;48.160;10.812;2023-07-16T12:52:48;3.35;;;1.90;;
47749;SDS011;49810;48.160;10.812;2023-07-16T12:55:16;2.95;;;1.33;;
47749;SDS011;49810;48.160;10.812;2023-07-16T12:57:45;2.60;;;1.58;;
47749;SDS011;49810;48.160;10.812;2023-07-16T13:00:13;3.22;;;1.70;;
47749;SDS011;49810;48.160;10.812;2023-07-16T13:02:41;2.65;;;1.70;;
47749;SDS011;49810;48.160;10.812;2023-07-16T13:05:11;3.85;;;1.60;;
47749;SDS011;49810;48.160;10.812;2023-07-16T13:07:40;2.33;;;1.38;;
47749;SDS011;49810;48.160;10.812;2023-07-16T13:10:08;2.72;;;1.60;;
47749;SDS011;49810;48.160;10.812;2023-07-16T13:12:49;2.53;;;1.50;;
47749;SDS011;49810;48.160;10.812;2023-07-16T13:15:17;2.67;;;1.70;;
47749;SDS011;49810;48.160;10.812;2023-07-16T13:17:45;3.03;;;1.90;;
47749;SDS011;49810;48.160;10.812;2023-07-16T13:20:16;2.53;;;1.80;;
47749;SDS011;49810;48.160;10.812;2023-07-16T13:22:45;2.88;;;1.70;;
47749;SDS011;49810;48.160;10.812;2023-07-16T13:25:14;2.47;;;1.52;;
47749;SDS011;49810;48.160;10.812;2023-07-16T13:27:43;2.63;;;1.75;;
47749;SDS011;49810;48.160;10.812;2023-07-16T13:30:11;3.28;;;1.65;;
47749;SDS011;49810;48.160;10.812;2023-07-16T13:32:40;4.15;;;1.90;;
47749;SDS011;49810;48.160;10.812;2023-07-16T13:35:08;2.55;;;1.58;;
47749;SDS011;49810;48.160;10.812;2023-07-16T13:37:38;4.22;;;1.83;;
47749;SDS011;49810;48.160;10.812;2023-07-16T13:40:06;4.50;;;1.50;;
47749;SDS011;49810;48.160;10.812;2023-07-16T13:42:35;3.50;;;1.75;;
47749;SDS011;49810;48.160;10.812;2023-07-16T13:45:03;1.63;;;1.27;;
47749;SDS011;49810;48.160;10.812;2023-07-16T13:47:31;2.50;;;1.58;;
47749;SDS011;49810;48.160;10.812;2023-07-16T13:49:59;2.55;;;1.60;;
47749;SDS011;49810;48.160;10.812;2023-07-16T13:52:27;2.50;;;1.50;;
47749;SDS011;49810;48.160;10.812;2023-07-16T13:54:57;3.83;;;1.48;;
47749;SDS011;49810;48.160;10.812;2023-07-16T13:57:25;3.45;;;1.50;;
47749;SDS011;49810;48.160;10.812;2023-07-16T13:59:53;4.22;;;1.50;;
47749;SDS011;49810;48.160;10.812;2023-07-16T14:02:21;2.88;;;1.52;;
47749;SDS011;49810;48.160;10.812;2023-07-16T14:04:49;4.35;;;1.60;;
47749;SDS011;49810;48.160;10.812;2023-07-16T14:07:18;2.55;;;1.50;;
47749;SDS011;49810;48.160;10.812;2023-07-16T14:09:46;1.75;;;1.33;;
47749;SDS011;49810;48.160;10.812;2023-07-16T14:12:16;3.50;;;1.70;;
47749;SDS011;49810;48.160;10.812;2023-07-16T14:14:44;3.42;;;1.52;;
47749;SDS011;49810;48.160;10.812;2023-07-16T14:17:12;2.20;;;1.52;;
47749;SDS011;49810;48.160;10.812;2023-07-16T14:19:40;3.15;;;1.40;;
47749;SDS011;49810;48.160;10.812;2023-07-16T14:22:08;2.20;;;1.50;;
47749;SDS011;49810;48.160;10.812;2023-07-16T14:24:38;2.90;;;1.70;;
47749;SDS011;49810;48.160;10.812;2023-07-16T14:27:06;2.70;;;1.80;;
47749;SDS011;49810;48.160;10.812;2023-07-16T14:29:36;2.50;;;1.77;;
47749;SDS011;49810;48.160;10.812;2023-07-16T14:32:16;2.38;;;1.42;;
47749;SDS011;49810;48.160;10.812;2023-07-16T14:34:44;3.35;;;1.73;;
47749;SDS011;49810;48.160;10.812;2023-07-16T14:37:12;2.55;;;1.58;;
47749;SDS011;49810;48.160;10.812;2023-07-16T14:39:40;3.63;;;2.20;;
47749;SDS011;49810;48.160;10.812;2023-07-16T14:42:08;3.05;;;1.85;;
47749;SDS011;49810;48.160;10.812;2023-07-16T14:44:37;2.75;;;1.50;;